createdAt,value
2022-11-19T00:04:01.468Z,83.59
2022-11-19T00:09:05.658Z,83.40
2022-11-19T00:14:12.666Z,81.24
2022-11-19T00:19:14.922Z,81.50
2022-11-19T00:24:17.066Z,83.37
2022-11-19T00:29:19.159Z,84.37
2022-11-19T00:34:22.964Z,83.27
2022-11-19T00:39:24.815Z,82.95
2022-11-19T00:44:26.694Z,81.59
2022-11-19T00:49:28.556Z,81.75
2022-11-19T00:54:30.724Z,82.23
2022-11-19T00:59:32.621Z,82.22
2022-11-19T01:04:34.555Z,84.03
2022-11-19T01:09:36.465Z,84.76
2022-11-19T01:14:38.449Z,83.66
2022-11-19T01:19:40.367Z,81.92
2022-11-19T01:24:42.185Z,83.07
2022-11-19T01:29:44.112Z,84.33
2022-11-19T01:34:46.032Z,84.31
2022-11-19T01:39:48.013Z,84.24
2022-11-19T01:45:02.701Z,84.65
2022-11-19T01:50:05.750Z,83.78
2022-11-19T01:55:08.686Z,82.07
2022-11-19T02:00:11.644Z,81.15
2022-11-19T02:05:13.958Z,79.94
2022-11-19T02:10:16.131Z,78.33
2022-11-19T02:15:23.244Z,81.18
2022-11-19T02:20:34.203Z,81.15
2022-11-19T02:25:38.989Z,81.60
2022-11-19T02:30:46.710Z,81.38
2022-11-19T02:35:58.854Z,81.81
2022-11-19T02:41:32.289Z,82.74
2022-11-19T02:46:34.363Z,84.16
2022-11-19T02:51:36.398Z,84.41
2022-11-19T02:56:52.056Z,85.16
2022-11-19T03:02:12.620Z,85.22
2022-11-19T03:07:18.291Z,84.77
2022-11-19T03:12:35.545Z,85.63
2022-11-19T03:18:09.685Z,86.56
2022-11-19T03:23:27.171Z,87.08
2022-11-19T03:28:34.233Z,87.76
2022-11-19T03:33:47.487Z,87.74
2022-11-19T03:39:04.295Z,87.51
2022-11-19T03:44:18.863Z,87.59
2022-11-19T03:49:31.708Z,87.22
2022-11-19T03:54:34.268Z,87.85
2022-11-19T03:59:36.234Z,87.49
2022-11-19T04:04:39.031Z,87.74
2022-11-19T04:09:42.028Z,87.85
2022-11-19T04:14:43.932Z,88.09
2022-11-19T04:19:46.730Z,88.00
2022-11-19T04:24:48.626Z,86.82
2022-11-19T04:29:50.501Z,86.91
2022-11-19T04:34:52.361Z,87.16
2022-11-19T04:39:54.160Z,86.36
2022-11-19T04:44:56.004Z,86.81
2022-11-19T04:49:57.828Z,86.26
2022-11-19T04:54:59.640Z,85.99
2022-11-19T05:00:01.570Z,85.85
2022-11-19T05:05:03.598Z,85.51
2022-11-19T05:10:05.902Z,85.38
2022-11-19T05:15:08.713Z,85.06
2022-11-19T05:20:10.848Z,85.09
2022-11-19T05:25:12.765Z,83.93
2022-11-19T05:30:15.227Z,85.86
2022-11-19T05:35:17.214Z,85.38
2022-11-19T05:40:19.078Z,84.93
2022-11-19T05:45:21.197Z,84.14
2022-11-19T05:50:23.145Z,85.32
2022-11-19T05:55:25.128Z,85.60
2022-11-19T06:00:27.027Z,84.53
2022-11-19T06:05:28.821Z,84.94
2022-11-19T06:10:30.625Z,85.40
2022-11-19T06:15:32.454Z,84.75
2022-11-19T06:20:34.319Z,85.14
2022-11-19T06:25:36.258Z,85.36
2022-11-19T06:30:38.281Z,84.97
2022-11-19T06:35:40.134Z,85.98
2022-11-19T06:40:42.822Z,86.38
2022-11-19T06:45:44.726Z,86.50
2022-11-19T06:50:47.221Z,84.84
2022-11-19T06:55:49.111Z,83.40
2022-11-19T07:00:51.150Z,84.10
2022-11-19T07:05:59.211Z,84.84
2022-11-19T07:11:22.392Z,83.59
2022-11-19T07:16:33.253Z,83.84
2022-11-19T07:21:36.283Z,82.94
2022-11-19T07:26:38.541Z,82.43
2022-11-19T07:31:40.581Z,83.75
2022-11-19T07:36:42.869Z,84.98
2022-11-19T07:42:03.638Z,85.57
2022-11-19T07:47:08.363Z,85.03
2022-11-19T07:52:10.221Z,83.96
2022-11-19T07:57:12.277Z,82.87
2022-11-19T08:02:15.179Z,81.80
2022-11-19T08:07:17.311Z,82.90
2022-11-19T08:12:19.418Z,82.63
2022-11-19T08:17:40.022Z,82.86
2022-11-19T08:22:42.932Z,83.53
2022-11-19T08:27:44.802Z,82.48
2022-11-19T08:32:46.812Z,82.72
2022-11-19T08:37:48.829Z,83.12
2022-11-19T08:42:59.945Z,83.43
2022-11-19T08:48:05.572Z,81.12
2022-11-19T08:53:07.518Z,80.95
2022-11-19T08:58:11.435Z,80.75
2022-11-19T09:03:13.266Z,79.38
2022-11-19T09:08:15.131Z,79.89
2022-11-19T09:13:17.024Z,80.76
2022-11-19T09:18:18.932Z,81.88
2022-11-19T09:23:21.559Z,81.59
2022-11-19T09:28:23.426Z,79.28
2022-11-19T09:33:26.124Z,79.72
2022-11-19T09:38:28.498Z,74.61
2022-11-19T09:43:49.213Z,77.97
2022-11-19T09:48:55.033Z,77.30
2022-11-19T09:54:05.981Z,79.12
2022-11-19T09:59:21.733Z,77.57
2022-11-19T10:04:26.992Z,78.10
2022-11-19T10:09:31.991Z,72.07
2022-11-19T10:14:43.184Z,74.86
2022-11-19T10:20:10.291Z,74.78
2022-11-19T10:25:22.952Z,74.45
2022-11-19T10:30:29.025Z,70.09
2022-11-19T10:35:39.039Z,73.30
2022-11-19T10:40:44.985Z,75.62
2022-11-19T10:45:46.793Z,75.12
2022-11-19T10:50:49.641Z,71.22
2022-11-19T10:55:57.773Z,68.43
2022-11-19T11:01:02.658Z,66.44
2022-11-19T11:06:07.912Z,64.23
2022-11-19T11:11:11.070Z,61.82
2022-11-19T11:16:20.169Z,62.48
2022-11-19T11:21:30.606Z,63.60
2022-11-19T11:26:34.815Z,65.60
2022-11-19T11:31:47.348Z,66.15
2022-11-19T11:36:49.230Z,64.12
2022-11-19T11:42:05.410Z,61.20
2022-11-19T11:47:15.165Z,61.14
2022-11-19T11:52:33.695Z,57.13
2022-11-19T11:57:49.992Z,60.11
2022-11-19T12:03:05.945Z,57.61
2022-11-19T12:08:27.107Z,58.92
2022-11-19T12:13:43.968Z,60.32
2022-11-19T12:18:45.790Z,58.21
2022-11-19T12:24:15.910Z,57.96
2022-11-19T12:29:36.673Z,59.07
2022-11-19T12:34:57.147Z,58.88
2022-11-19T12:40:20.602Z,57.92
2022-11-19T12:45:30.628Z,59.78
2022-11-19T12:50:50.937Z,58.90
2022-11-19T12:56:15.691Z,57.45
2022-11-19T13:01:27.494Z,58.44
2022-11-19T13:06:41.721Z,58.73
2022-11-19T13:11:50.024Z,60.99
2022-11-19T13:16:54.598Z,62.79
2022-11-19T13:22:02.662Z,59.30
2022-11-19T13:27:09.667Z,59.87
2022-11-19T13:32:48.023Z,62.01
2022-11-19T13:38:02.918Z,68.03
2022-11-19T13:43:32.533Z,68.09
2022-11-19T13:48:41.689Z,66.28
2022-11-19T13:53:46.323Z,67.42
2022-11-19T13:58:51.757Z,68.67
2022-11-19T14:04:28.038Z,68.16
2022-11-19T14:09:48.739Z,71.00
2022-11-19T14:15:40.392Z,69.88
2022-11-19T14:21:02.978Z,70.71
2022-11-19T14:26:22.543Z,72.40
2022-11-19T14:31:24.543Z,71.99
2022-11-19T14:36:29.602Z,72.53
2022-11-19T14:41:33.893Z,72.79
2022-11-19T14:46:45.796Z,74.06
2022-11-19T14:51:53.656Z,74.88
2022-11-19T14:57:13.683Z,75.05
2022-11-19T15:02:34.601Z,76.03
2022-11-19T15:07:39.951Z,75.38
2022-11-19T15:12:44.913Z,74.78
2022-11-19T15:17:50.876Z,75.87
2022-11-19T15:23:06.717Z,75.65
2022-11-19T15:28:18.846Z,75.93
2022-11-19T15:33:47.159Z,76.62
2022-11-19T15:38:57.616Z,77.58
2022-11-19T15:44:04.508Z,77.62
2022-11-19T15:49:26.949Z,77.95
2022-11-19T15:54:34.704Z,77.77
2022-11-19T15:59:38.406Z,77.69
2022-11-19T16:04:41.069Z,77.94
2022-11-19T16:09:42.963Z,78.58
2022-11-19T16:15:12.309Z,78.98
2022-11-19T16:20:14.125Z,78.24
2022-11-19T16:25:31.496Z,78.27
2022-11-19T16:30:46.429Z,79.22
2022-11-19T16:35:52.829Z,79.30
2022-11-19T16:41:16.030Z,79.11
2022-11-19T16:46:22.358Z,79.33
2022-11-19T16:51:31.881Z,77.88
2022-11-19T16:56:45.935Z,79.24
2022-11-19T17:01:54.072Z,79.49
2022-11-19T17:06:57.748Z,79.53
2022-11-19T17:12:18.024Z,79.82
2022-11-19T17:17:39.980Z,80.02
2022-11-19T17:22:42.564Z,79.48
2022-11-19T17:27:51.399Z,80.07
2022-11-19T17:32:54.588Z,80.09
2022-11-19T17:37:58.931Z,80.41
2022-11-19T17:43:19.650Z,80.26
2022-11-19T17:48:24.152Z,79.98
2022-11-19T17:53:26.133Z,80.33
2022-11-19T17:58:28.086Z,80.19
2022-11-19T18:03:30.045Z,80.59
2022-11-19T18:08:33.078Z,81.25
2022-11-19T18:13:36.826Z,81.78
2022-11-19T18:18:38.704Z,82.36
2022-11-19T18:23:41.954Z,81.94
2022-11-19T18:28:47.735Z,81.59
2022-11-19T18:33:50.930Z,81.44
2022-11-19T18:38:55.757Z,81.33
2022-11-19T18:44:16.417Z,78.21
2022-11-19T18:49:18.577Z,80.17
2022-11-19T18:54:21.042Z,79.16
2022-11-19T18:59:23.960Z,77.52
2022-11-19T19:04:26.538Z,77.18
2022-11-19T19:09:28.425Z,75.99
2022-11-19T19:14:30.293Z,75.96
2022-11-19T19:19:32.193Z,75.78
2022-11-19T19:24:34.101Z,76.12
2022-11-19T19:29:35.994Z,76.69
2022-11-19T19:34:37.891Z,79.60
2022-11-19T19:39:39.777Z,80.84
2022-11-19T19:44:41.673Z,81.59
2022-11-19T19:49:43.675Z,82.17
2022-11-19T19:54:45.556Z,82.37
2022-11-19T19:59:47.432Z,82.82
2022-11-19T20:04:49.322Z,82.78
2022-11-19T20:09:51.207Z,83.17
2022-11-19T20:14:53.101Z,83.21
2022-11-19T20:19:54.924Z,83.12
2022-11-19T20:24:56.765Z,83.14
2022-11-19T20:30:00.087Z,83.53
2022-11-19T20:35:02.160Z,83.73
2022-11-19T20:40:04.263Z,83.79
2022-11-19T20:45:08.407Z,83.95
2022-11-19T20:50:10.448Z,83.99
2022-11-19T20:55:12.364Z,84.01
2022-11-19T21:00:15.373Z,84.15
2022-11-19T21:05:17.354Z,84.29
2022-11-19T21:10:19.428Z,84.47
2022-11-19T21:15:21.228Z,84.52
2022-11-19T21:20:23.332Z,84.12
2022-11-19T21:25:25.260Z,84.36
2022-11-19T21:30:27.192Z,84.79
2022-11-19T21:35:29.065Z,85.19
2022-11-19T21:40:30.974Z,85.41
2022-11-19T21:45:32.948Z,85.56
2022-11-19T21:50:38.588Z,85.71
2022-11-19T21:55:45.001Z,85.78
2022-11-19T22:00:47.135Z,85.96
2022-11-19T22:05:59.313Z,86.13
2022-11-19T22:11:21.445Z,86.22
2022-11-19T22:16:24.541Z,86.25
2022-11-19T22:21:29.254Z,86.18
2022-11-19T22:26:31.303Z,84.18
2022-11-19T22:31:34.044Z,85.33
2022-11-19T22:36:35.925Z,85.76
2022-11-19T22:41:37.732Z,85.84
2022-11-19T22:46:39.529Z,86.06
2022-11-19T22:51:41.521Z,86.26
2022-11-19T22:56:43.504Z,86.36
2022-11-19T23:01:45.335Z,86.37
2022-11-19T23:06:47.224Z,86.23
2022-11-19T23:12:07.882Z,86.02
2022-11-19T23:17:09.732Z,86.11
2022-11-19T23:22:11.537Z,86.06
2022-11-19T23:27:16.722Z,86.04
2022-11-19T23:32:22.632Z,86.11
2022-11-19T23:37:24.458Z,86.18
2022-11-19T23:42:26.409Z,86.11
2022-11-19T23:47:28.207Z,86.09
2022-11-19T23:52:30.073Z,86.47
2022-11-19T23:57:31.954Z,86.79
